Time;durP1;ratioP1;P1;durP2;ratioP2;P2;SDS_P1;SDS_P2;PMS_P1;PMS_P2;Temp;Humidity;BMP_temperature;BMP_pressure;BME280_temperature;BME280_humidity;BME280_pressure;Samples;Min_cycle;Max_cycle;Signal;HPM_P1;HPM_P2
2023/03/04 00:00:21;;;;;;;15.90;2.30;;;7.30;72.40;;;;;;5074311;28;20051;-81
2023/03/04 00:02:47;;;;;;;11.40;1.60;;;7.30;72.40;;;;;;5075562;28;20048;-81
2023/03/04 00:05:13;;;;;;;8.53;1.53;;;7.30;72.80;;;;;;5074343;28;20492;-82
2023/03/04 00:07:38;;;;;;;12.97;1.90;;;7.30;72.90;;;;;;5074684;28;20107;-81
2023/03/04 00:10:05;;;;;;;14.87;1.43;;;7.30;73.00;;;;;;5074303;28;20040;-81
2023/03/04 00:12:31;;;;;;;13.93;1.73;;;7.30;72.70;;;;;;5076092;28;20032;-81
2023/03/04 00:14:56;;;;;;;12.73;1.43;;;7.30;72.90;;;;;;5073715;28;20039;-81
2023/03/04 00:17:22;;;;;;;10.27;1.63;;;7.40;73.00;;;;;;5073766;28;20037;-81
2023/03/04 00:19:48;;;;;;;8.30;1.10;;;7.30;72.70;;;;;;5074342;28;20052;-81
2023/03/04 00:22:14;;;;;;;12.90;1.83;;;7.30;72.90;;;;;;5057195;28;20067;-81
2023/03/04 00:24:40;;;;;;;11.83;1.50;;;7.30;72.90;;;;;;5074950;28;20049;-81
2023/03/04 00:27:05;;;;;;;11.63;1.40;;;7.30;72.90;;;;;;5057207;28;20527;-82
2023/03/04 00:29:31;;;;;;;8.97;1.20;;;7.30;72.70;;;;;;5073975;28;20083;-81
2023/03/04 00:31:56;;;;;;;16.07;1.60;;;7.30;72.70;;;;;;5056862;28;20103;-80
2023/03/04 00:34:22;;;;;;;11.43;1.03;;;7.30;72.80;;;;;;5074002;28;20033;-80
2023/03/04 00:36:48;;;;;;;12.03;1.60;;;7.30;72.70;;;;;;5073623;28;20449;-80
2023/03/04 00:39:14;;;;;;;10.07;1.03;;;7.30;73.00;;;;;;5040361;28;20535;-80
2023/03/04 00:41:39;;;;;;;9.73;0.90;;;7.30;73.10;;;;;;5074007;28;20032;-80
2023/03/04 00:44:05;;;;;;;8.63;1.13;;;7.30;73.20;;;;;;5073291;28;20025;-80
2023/03/04 00:46:31;;;;;;;21.67;1.80;;;7.30;73.10;;;;;;5073539;28;20383;-80
2023/03/04 00:48:56;;;;;;;10.23;1.67;;;7.30;73.00;;;;;;5074136;28;20032;-80
2023/03/04 00:51:22;;;;;;;10.00;1.40;;;7.30;73.40;;;;;;5074658;28;20036;-80
2023/03/04 00:53:48;;;;;;;13.07;1.47;;;7.30;73.50;;;;;;5072990;28;20044;-81
2023/03/04 00:56:13;;;;;;;7.57;1.10;;;7.30;73.50;;;;;;5056808;28;20063;-80
2023/03/04 00:58:39;;;;;;;9.37;1.40;;;7.30;73.40;;;;;;5073057;28;20036;-80
2023/03/04 01:01:06;;;;;;;13.33;1.50;;;7.20;73.80;;;;;;5056703;28;20083;-81
2023/03/04 01:03:32;;;;;;;9.27;1.67;;;7.10;73.70;;;;;;5072699;28;20052;-81
2023/03/04 01:05:58;;;;;;;13.97;1.20;;;7.20;73.90;;;;;;5056134;28;20442;-80
2023/03/04 01:08:24;;;;;;;11.73;2.07;;;7.30;74.10;;;;;;5056501;28;20062;-80
2023/03/04 01:10:50;;;;;;;13.33;1.40;;;7.20;74.00;;;;;;5073124;28;20033;-80
2023/03/04 01:13:15;;;;;;;12.93;1.00;;;7.10;74.00;;;;;;5073098;28;20029;-80
2023/03/04 01:15:41;;;;;;;12.70;1.27;;;7.20;74.00;;;;;;5072814;28;20025;-80
2023/03/04 01:18:07;;;;;;;9.43;1.33;;;7.20;74.10;;;;;;5072496;28;20544;-80
2023/03/04 01:20:33;;;;;;;12.63;1.60;;;7.20;74.30;;;;;;5073567;28;20105;-80
2023/03/04 01:22:58;;;;;;;10.60;1.20;;;7.10;74.10;;;;;;5072539;28;20043;-80
2023/03/04 01:25:24;;;;;;;10.10;1.30;;;7.10;74.30;;;;;;5055740;28;20025;-80
2023/03/04 01:27:49;;;;;;;14.47;1.40;;;7.10;74.30;;;;;;5072511;28;20518;-80
2023/03/04 01:30:15;;;;;;;10.20;0.90;;;7.00;74.50;;;;;;5039408;28;20036;-80
2023/03/04 01:32:41;;;;;;;11.73;1.33;;;7.10;74.50;;;;;;5039478;28;20025;-80
2023/03/04 01:35:07;;;;;;;7.30;1.10;;;7.10;74.30;;;;;;5073709;28;20040;-80
2023/03/04 01:37:32;;;;;;;11.13;1.87;;;7.10;74.90;;;;;;5072073;28;20128;-80
2023/03/04 01:39:58;;;;;;;13.00;1.30;;;7.10;75.20;;;;;;5072360;28;20103;-80
2023/03/04 01:42:26;;;;;;;10.30;1.43;;;7.10;75.30;;;;;;5072241;28;20127;-80
2023/03/04 01:44:52;;;;;;;12.63;1.90;;;7.10;75.10;;;;;;5073721;28;20055;-80
2023/03/04 01:47:20;;;;;;;12.17;1.33;;;7.10;76.10;;;;;;5071917;28;20387;-80
2023/03/04 01:49:54;;;;;;;11.63;0.93;;;7.00;75.50;;;;;;5073439;28;20472;-79
2023/03/04 01:52:19;;;;;;;;;;;7.00;75.30;;;;;;5073758;28;20115;-78
2023/03/04 01:54:46;;;;;;;6.73;1.43;;;7.00;75.50;;;;;;5072279;28;20003;-80
2023/03/04 01:57:24;;;;;;;9.40;1.20;;;7.00;75.20;;;;;;5071895;28;20078;-81
2023/03/04 02:00:18;;;;;;;10.13;1.20;;;7.00;75.30;;;;;;5073467;28;20025;-81
2023/03/04 02:02:44;;;;;;;8.18;1.00;;;7.00;75.10;;;;;;5071896;28;20080;-80
2023/03/04 02:05:10;;;;;;;11.27;1.27;;;7.00;75.60;;;;;;5073419;28;20021;-81
2023/03/04 02:07:36;;;;;;;11.50;1.10;;;7.00;75.60;;;;;;5073576;28;20097;-80
2023/03/04 02:10:03;;;;;;;8.53;1.10;;;7.00;75.60;;;;;;5089070;28;20055;-81
2023/03/04 02:12:28;;;;;;;12.30;1.43;;;7.00;76.20;;;;;;5071843;28;20033;-80
2023/03/04 02:14:54;;;;;;;14.17;1.87;;;7.00;76.20;;;;;;5071695;28;20127;-80
2023/03/04 02:17:27;;;;;;;17.87;2.63;;;7.00;76.30;;;;;;5071372;28;20028;-80
2023/03/04 02:20:06;;;;;;;11.73;1.17;;;6.90;76.00;;;;;;5071901;28;20062;-80
2023/03/04 02:22:37;;;;;;;9.33;1.30;;;7.00;76.20;;;;;;5088681;28;20020;-80
2023/03/04 02:25:13;;;;;;;14.67;1.50;;;7.00;76.40;;;;;;5072646;28;20123;-80
2023/03/04 02:27:38;;;;;;;10.60;1.00;;;7.00;76.50;;;;;;5072005;28;20021;-80
2023/03/04 02:30:05;;;;;;;16.13;1.10;;;7.00;76.00;;;;;;5037848;28;20403;-80
2023/03/04 02:32:31;;;;;;;13.33;1.30;;;6.90;75.80;;;;;;5071950;28;20090;-80
2023/03/04 02:34:56;;;;;;;8.23;1.10;;;7.00;76.00;;;;;;5071563;28;20037;-80
2023/03/04 02:37:22;;;;;;;12.07;1.40;;;7.00;75.80;;;;;;5072960;28;20067;-80
2023/03/04 02:39:48;;;;;;;10.80;1.20;;;7.00;75.80;;;;;;5071359;28;20033;-79
2023/03/04 02:42:14;;;;;;;11.80;1.40;;;7.00;75.70;;;;;;5071829;28;20124;-80
2023/03/04 02:44:45;;;;;;;9.73;1.57;;;7.00;75.80;;;;;;5071612;28;20028;-80
2023/03/04 02:47:12;;;;;;;13.80;1.57;;;7.00;75.60;;;;;;5072232;28;20392;-80
2023/03/04 02:49:39;;;;;;;11.00;1.33;;;7.00;76.00;;;;;;5072842;28;20036;-80
2023/03/04 02:52:18;;;;;;;10.13;1.50;;;7.00;76.00;;;;;;5073059;28;20028;-80
2023/03/04 02:54:43;;;;;;;9.10;1.33;;;7.00;75.90;;;;;;5072974;28;20036;-80
2023/03/04 02:57:11;;;;;;;15.63;1.40;;;7.00;76.40;;;;;;5071473;28;20035;-80
2023/03/04 02:59:38;;;;;;;11.87;1.00;;;7.00;76.20;;;;;;5073058;28;20028;-80
2023/03/04 03:02:04;;;;;;;9.57;1.13;;;7.00;76.30;;;;;;5070963;28;20040;-81
2023/03/04 03:04:30;;;;;;;8.23;1.10;;;7.00;76.10;;;;;;5073048;28;20036;-81
2023/03/04 03:06:56;;;;;;;11.03;0.73;;;7.00;76.00;;;;;;5072842;28;20498;-80
2023/03/04 03:09:22;;;;;;;11.43;0.97;;;7.00;75.90;;;;;;5071824;28;20025;-81
2023/03/04 03:11:47;;;;;;;13.13;0.97;;;7.00;76.00;;;;;;5070967;28;20051;-80
2023/03/04 03:14:13;;;;;;;10.60;1.33;;;7.10;75.90;;;;;;5071483;28;20040;-81
2023/03/04 03:16:39;;;;;;;11.67;1.10;;;7.00;75.80;;;;;;5071507;28;20025;-80
2023/03/04 03:19:05;;;;;;;14.77;1.50;;;7.10;75.90;;;;;;5070978;28;20381;-80
2023/03/04 03:21:31;;;;;;;11.70;1.40;;;7.00;76.40;;;;;;5071253;28;20066;-80
2023/03/04 03:23:56;;;;;;;8.67;0.80;;;7.00;76.40;;;;;;5072550;28;20037;-81
2023/03/04 03:26:22;;;;;;;10.43;0.87;;;7.00;76.60;;;;;;5038073;28;20384;-81
2023/03/04 03:28:47;;;;;;;8.20;1.40;;;7.00;76.30;;;;;;5071471;28;20379;-81
2023/03/04 03:31:13;;;;;;;13.63;1.23;;;7.00;76.20;;;;;;5071208;28;20032;-80
2023/03/04 03:33:39;;;;;;;12.00;1.10;;;7.00;76.40;;;;;;5072522;28;20148;-80
2023/03/04 03:36:05;;;;;;;10.30;0.90;;;7.00;76.20;;;;;;5070994;28;20040;-80
2023/03/04 03:38:31;;;;;;;10.93;1.10;;;7.00;76.20;;;;;;5054335;28;20063;-81
2023/03/04 03:40:57;;;;;;;9.90;1.00;;;7.00;76.40;;;;;;5071085;28;20468;-81
2023/03/04 03:43:22;;;;;;;12.00;1.27;;;7.00;76.30;;;;;;5074629;28;20520;-81
2023/03/04 03:45:48;;;;;;;12.13;1.47;;;7.00;76.20;;;;;;5074709;28;20039;-80
2023/03/04 03:48:13;;;;;;;14.37;1.47;;;7.00;76.40;;;;;;5074178;28;20032;-80
2023/03/04 03:50:39;;;;;;;9.00;1.00;;;7.00;76.80;;;;;;5075655;28;20403;-80
2023/03/04 03:53:05;;;;;;;13.43;1.47;;;7.00;76.50;;;;;;5075929;28;20047;-81
2023/03/04 03:55:30;;;;;;;9.50;1.00;;;7.00;76.90;;;;;;5074720;28;20020;-81
2023/03/04 03:57:56;;;;;;;12.83;1.30;;;7.00;76.90;;;;;;5057751;28;20534;-81
2023/03/04 04:00:22;;;;;;;8.00;1.00;;;7.00;76.70;;;;;;5074459;28;20037;-81
2023/03/04 04:02:47;;;;;;;8.57;0.73;;;7.00;76.70;;;;;;5074130;28;20045;-81
2023/03/04 04:05:14;;;;;;;6.50;0.80;;;7.00;77.20;;;;;;5074603;28;20035;-81
2023/03/04 04:07:40;;;;;;;11.40;1.20;;;7.00;77.00;;;;;;5075325;28;20040;-81
2023/03/04 04:10:06;;;;;;;6.07;0.90;;;7.00;76.80;;;;;;5075480;28;20021;-81
2023/03/04 04:12:32;;;;;;;6.80;1.00;;;6.90;76.80;;;;;;5075270;28;20085;-80
2023/03/04 04:14:57;;;;;;;5.90;1.00;;;7.00;76.80;;;;;;5074116;28;20532;-80
2023/03/04 04:17:23;;;;;;;8.50;1.27;;;7.00;76.80;;;;;;5074823;28;20495;-80
2023/03/04 04:19:49;;;;;;;12.00;1.47;;;7.00;76.90;;;;;;5057180;28;20048;-81
2023/03/04 04:22:18;;;;;;;6.80;0.73;;;7.00;76.90;;;;;;5074170;28;20028;-80
2023/03/04 04:24:44;;;;;;;8.70;1.53;;;6.90;77.00;;;;;;5074801;28;20028;-80
2023/03/04 04:27:10;;;;;;;7.53;0.90;;;7.00;77.00;;;;;;5073928;28;20082;-80
2023/03/04 04:29:36;;;;;;;11.00;0.93;;;6.90;76.90;;;;;;5075014;28;20025;-80
2023/03/04 04:32:02;;;;;;;12.33;1.30;;;7.00;77.60;;;;;;5075091;28;20446;-80
2023/03/04 04:34:27;;;;;;;8.50;1.03;;;7.00;77.00;;;;;;5071778;28;20024;-80
2023/03/04 04:36:53;;;;;;;8.13;1.40;;;6.90;76.90;;;;;;5072997;28;20060;-80
2023/03/04 04:39:19;;;;;;;8.93;0.90;;;6.90;77.20;;;;;;5072911;28;20024;-80
2023/03/04 04:41:45;;;;;;;10.47;1.00;;;6.90;77.20;;;;;;5073520;28;20028;-81
2023/03/04 04:44:11;;;;;;;10.27;1.00;;;7.00;77.60;;;;;;5073004;28;20025;-80
2023/03/04 04:46:38;;;;;;;9.77;1.10;;;6.90;78.00;;;;;;5056600;28;20089;-80
2023/03/04 04:49:04;;;;;;;4.37;0.90;;;6.90;77.30;;;;;;5073117;28;20021;-81
2023/03/04 04:51:30;;;;;;;12.07;0.83;;;6.90;77.20;;;;;;5073387;28;20488;-81
2023/03/04 04:53:55;;;;;;;4.63;0.80;;;6.90;77.50;;;;;;5074472;28;20024;-81
2023/03/04 04:56:25;;;;;;;9.73;1.17;;;6.90;77.80;;;;;;5072892;28;20025;-80
2023/03/04 04:58:52;;;;;;;9.87;0.90;;;6.90;77.70;;;;;;5074678;28;20036;-80
2023/03/04 05:01:17;;;;;;;4.03;0.83;;;6.80;77.60;;;;;;5073395;28;20384;-80
2023/03/04 05:03:43;;;;;;;5.83;1.17;;;6.90;78.00;;;;;;5073117;28;20087;-80
2023/03/04 05:06:10;;;;;;;6.53;1.10;;;6.90;77.90;;;;;;5074660;28;20472;-81
2023/03/04 05:08:36;;;;;;;6.53;0.83;;;6.80;78.50;;;;;;5072903;28;20037;-81
2023/03/04 05:11:02;;;;;;;10.57;0.80;;;6.80;78.70;;;;;;5056647;28;20054;-81
2023/03/04 05:13:28;;;;;;;5.80;0.67;;;6.80;78.70;;;;;;5074326;28;20063;-80
2023/03/04 05:15:55;;;;;;;9.80;1.30;;;6.80;78.60;;;;;;5074736;28;20385;-80
2023/03/04 05:18:21;;;;;;;4.80;0.70;;;6.80;78.80;;;;;;5072338;28;20039;-81
2023/03/04 05:20:56;;;;;;;6.20;0.87;;;6.80;79.10;;;;;;5073893;28;20382;-81
2023/03/04 05:23:22;;;;;;;7.67;1.47;;;6.80;78.90;;;;;;5074234;28;20035;-81
2023/03/04 05:25:48;;;;;;;6.20;1.10;;;6.70;78.90;;;;;;5073260;28;20059;-81
2023/03/04 05:28:15;;;;;;;7.33;0.83;;;6.70;78.80;;;;;;5074235;28;20060;-81
2023/03/04 05:30:42;;;;;;;10.30;1.00;;;6.70;79.50;;;;;;5072271;28;20020;-81
2023/03/04 05:33:10;;;;;;;13.13;1.23;;;6.70;79.20;;;;;;5072455;28;20089;-81
2023/03/04 05:35:36;;;;;;;10.57;1.17;;;6.70;79.30;;;;;;5073670;28;20035;-81
2023/03/04 05:38:04;;;;;;;7.53;0.80;;;6.70;79.40;;;;;;5055486;28;20044;-79
2023/03/04 05:40:30;;;;;;;3.93;0.83;;;6.70;79.40;;;;;;5056213;28;20123;-80
2023/03/04 05:42:55;;;;;;;4.67;0.70;;;6.70;79.50;;;;;;5055357;28;20065;-80
2023/03/04 05:45:21;;;;;;;9.77;0.90;;;6.70;80.30;;;;;;5072121;28;20028;-80
2023/03/04 05:47:47;;;;;;;10.73;0.90;;;6.70;80.00;;;;;;5055411;28;20028;-81
2023/03/04 05:50:13;;;;;;;12.67;0.90;;;6.70;80.70;;;;;;5072442;28;20035;-80
2023/03/04 05:52:38;;;;;;;7.53;0.87;;;6.70;80.50;;;;;;5089373;28;20025;-80
2023/03/04 05:55:04;;;;;;;10.23;1.40;;;6.70;80.80;;;;;;5072465;28;20058;-80
2023/03/04 05:57:30;;;;;;;6.60;0.70;;;6.60;80.70;;;;;;5055062;28;20036;-80
2023/03/04 05:59:56;;;;;;;5.67;0.93;;;6.60;80.80;;;;;;5072034;28;20024;-81
2023/03/04 06:02:21;;;;;;;6.30;0.60;;;6.60;80.80;;;;;;5071847;28;20057;-80
2023/03/04 06:04:47;;;;;;;12.70;0.97;;;6.60;81.00;;;;;;5071841;28;20082;-81
2023/03/04 06:07:12;;;;;;;5.30;0.70;;;6.60;80.90;;;;;;5088647;28;20074;-80
2023/03/04 06:09:38;;;;;;;3.67;0.60;;;6.60;81.10;;;;;;5055214;28;20024;-78
2023/03/04 06:12:04;;;;;;;11.43;1.20;;;6.60;81.20;;;;;;5088907;28;20495;-80
2023/03/04 06:14:29;;;;;;;6.27;1.20;;;6.60;81.50;;;;;;5071917;28;20048;-79
2023/03/04 06:16:56;;;;;;;7.57;1.17;;;6.60;81.50;;;;;;5088643;28;20043;-78
2023/03/04 06:19:21;;;;;;;9.50;0.90;;;6.60;81.50;;;;;;5072923;28;20028;-81
2023/03/04 06:21:47;;;;;;;6.60;0.97;;;6.60;81.70;;;;;;5054942;28;20085;-81
2023/03/04 06:24:12;;;;;;;6.07;0.70;;;6.60;81.60;;;;;;5088881;28;20123;-80
2023/03/04 06:26:38;;;;;;;17.80;1.07;;;6.50;81.50;;;;;;5073121;28;20029;-81
2023/03/04 06:29:05;;;;;;;10.13;0.90;;;6.60;81.60;;;;;;5088724;28;20127;-81
2023/03/04 06:31:31;;;;;;;8.33;0.90;;;6.60;81.50;;;;;;5071747;28;20563;-81
2023/03/04 06:33:56;;;;;;;9.10;1.10;;;6.60;81.50;;;;;;5072918;28;20107;-81
2023/03/04 06:36:22;;;;;;;5.20;0.90;;;6.60;81.60;;;;;;5054675;28;20119;-79
2023/03/04 06:38:48;;;;;;;9.97;0.93;;;6.60;81.50;;;;;;5071403;28;20032;-80
2023/03/04 06:41:14;;;;;;;8.10;1.10;;;6.60;81.70;;;;;;5071739;28;20498;-80
2023/03/04 06:43:39;;;;;;;7.07;0.70;;;6.60;81.60;;;;;;5088460;28;20098;-79
2023/03/04 06:46:06;;;;;;;6.40;0.87;;;6.60;81.70;;;;;;5072834;28;20078;-80
2023/03/04 06:48:32;;;;;;;5.50;0.83;;;6.60;81.50;;;;;;5071924;28;20108;-80
2023/03/04 06:51:01;;;;;;;6.97;0.87;;;6.60;81.70;;;;;;5086667;28;20420;-80
2023/03/04 06:53:26;;;;;;;8.87;0.90;;;6.60;81.60;;;;;;5087320;28;20115;-80
2023/03/04 06:55:52;;;;;;;7.10;0.93;;;6.60;81.70;;;;;;5073760;28;20511;-79
2023/03/04 06:58:18;;;;;;;8.93;1.00;;;6.70;82.00;;;;;;5082010;28;20385;-79
2023/03/04 07:00:44;;;;;;;6.47;0.90;;;6.60;81.80;;;;;;5088819;28;20052;-80
2023/03/04 07:03:12;;;;;;;7.37;0.80;;;6.60;81.90;;;;;;5088486;28;20071;-80
2023/03/04 07:05:38;;;;;;;8.77;1.20;;;6.60;81.90;;;;;;5036297;28;20502;-79
2023/03/04 07:08:05;;;;;;;11.50;1.00;;;6.60;81.80;;;;;;5054815;28;20040;-79
2023/03/04 07:10:31;;;;;;;12.50;1.30;;;6.70;82.20;;;;;;5054180;28;20476;-80
2023/03/04 07:12:57;;;;;;;7.47;0.73;;;6.60;82.20;;;;;;5091196;28;20053;-80
2023/03/04 07:15:23;;;;;;;7.03;0.93;;;6.70;82.60;;;;;;5099855;28;20024;-81
2023/03/04 07:17:48;;;;;;;7.77;0.93;;;6.60;82.90;;;;;;5112337;28;20036;-80
2023/03/04 07:20:14;;;;;;;7.70;0.80;;;6.60;83.30;;;;;;5115639;28;20039;-81
2023/03/04 07:22:40;;;;;;;12.13;1.40;;;6.60;83.80;;;;;;5097849;28;20032;-80
2023/03/04 07:25:06;;;;;;;6.80;0.93;;;6.60;83.70;;;;;;5097681;28;20031;-79
2023/03/04 07:27:31;;;;;;;2.80;0.70;;;6.60;84.00;;;;;;5098521;28;20111;-80
2023/03/04 07:29:57;;;;;;;8.53;1.20;;;6.60;84.00;;;;;;5095391;28;20468;-80
2023/03/04 07:32:23;;;;;;;6.90;1.30;;;6.60;84.20;;;;;;5096648;28;20054;-80
2023/03/04 07:34:48;;;;;;;8.27;1.33;;;6.70;84.50;;;;;;5095259;28;20024;-80
2023/03/04 07:37:14;;;;;;;12.27;1.63;;;6.80;84.50;;;;;;5097031;28;20044;-80
2023/03/04 07:39:39;;;;;;;12.97;1.40;;;6.70;84.80;;;;;;5115228;28;20130;-81
2023/03/04 07:42:06;;;;;;;9.10;1.13;;;6.80;84.90;;;;;;5115227;28;20548;-80
2023/03/04 07:44:32;;;;;;;10.27;1.03;;;6.90;85.10;;;;;;5098433;28;20031;-80
2023/03/04 07:46:57;;;;;;;10.83;1.50;;;6.90;85.20;;;;;;5114813;28;20036;-80
2023/03/04 07:49:23;;;;;;;8.43;1.20;;;6.90;85.60;;;;;;5115384;28;20114;-81
2023/03/04 07:51:49;;;;;;;11.37;1.73;;;6.90;86.40;;;;;;5080828;28;20036;-82
2023/03/04 07:54:18;;;;;;;6.97;0.90;;;6.90;87.40;;;;;;5094600;28;20028;-81
2023/03/04 07:56:45;;;;;;;14.23;1.13;;;6.90;87.90;;;;;;5078349;28;20132;-81
2023/03/04 07:59:10;;;;;;;6.77;0.93;;;6.90;88.10;;;;;;5094129;28;20097;-81
2023/03/04 08:01:37;;;;;;;3.90;0.67;;;6.90;88.30;;;;;;5097432;28;20031;-81
2023/03/04 08:04:05;;;;;;;8.00;0.90;;;6.90;88.30;;;;;;5116155;27;20100;-81
2023/03/04 08:06:32;;;;;;;6.57;0.80;;;7.00;88.60;;;;;;5116192;28;20369;-80
2023/03/04 08:09:00;;;;;;;5.80;0.93;;;7.00;88.60;;;;;;5116193;28;20026;-81
2023/03/04 08:11:27;;;;;;;6.50;1.23;;;7.00;88.80;;;;;;5114370;28;20410;-81
2023/03/04 08:13:53;;;;;;;7.93;1.10;;;7.10;89.00;;;;;;5116213;28;20034;-80
2023/03/04 08:16:21;;;;;;;10.00;1.57;;;7.10;89.50;;;;;;5091638;28;20024;-80
2023/03/04 08:18:49;;;;;;;11.77;1.20;;;7.10;89.60;;;;;;5094242;28;20048;-81
2023/03/04 08:21:18;;;;;;;11.70;1.30;;;7.20;89.80;;;;;;5094166;28;20082;-81
2023/03/04 08:23:44;;;;;;;8.90;1.47;;;7.10;90.00;;;;;;5102876;28;20479;-81
2023/03/04 08:26:13;;;;;;;9.50;0.90;;;7.30;90.00;;;;;;5114412;28;20472;-80
2023/03/04 08:28:39;;;;;;;11.70;1.67;;;7.30;90.10;;;;;;5113846;28;20043;-80
2023/03/04 08:31:05;;;;;;;8.77;1.70;;;7.30;90.20;;;;;;5097581;28;20471;-81
2023/03/04 08:33:31;;;;;;;5.63;1.10;;;7.30;90.30;;;;;;5114212;28;20103;-80
2023/03/04 08:35:57;;;;;;;6.67;1.00;;;7.30;90.30;;;;;;5114306;28;20031;-80
2023/03/04 08:38:22;;;;;;;11.83;1.70;;;7.40;90.40;;;;;;5097290;28;20040;-80
2023/03/04 08:40:55;;;;;;;5.67;0.70;;;7.50;90.50;;;;;;5114192;28;20031;-80
2023/03/04 08:43:22;;;;;;;8.33;1.20;;;7.50;90.50;;;;;;5114477;28;20035;-80
2023/03/04 08:45:48;;;;;;;10.67;1.20;;;7.50;90.60;;;;;;5114365;28;20028;-80
2023/03/04 08:48:16;;;;;;;8.47;1.10;;;7.60;90.50;;;;;;5113768;28;20039;-80
2023/03/04 08:50:43;;;;;;;10.03;0.90;;;7.70;90.60;;;;;;5115347;28;20020;-81
2023/03/04 08:53:09;;;;;;;7.47;1.20;;;7.70;90.50;;;;;;5114001;28;20028;-81
2023/03/04 08:55:38;;;;;;;11.40;1.60;;;7.70;90.50;;;;;;5096841;28;20024;-81
2023/03/04 08:58:04;;;;;;;7.33;1.17;;;7.70;90.60;;;;;;5115288;28;20463;-80
2023/03/04 09:00:30;;;;;;;8.07;1.13;;;7.60;90.60;;;;;;5096667;28;20032;-80
2023/03/04 09:02:55;;;;;;;8.37;0.80;;;7.70;90.80;;;;;;5113235;28;20475;-81
2023/03/04 09:05:21;;;;;;;7.87;1.10;;;7.80;90.80;;;;;;5114734;28;20023;-80
2023/03/04 09:07:47;;;;;;;8.70;1.47;;;7.80;90.80;;;;;;5096733;28;20348;-80
2023/03/04 09:10:13;;;;;;;4.10;1.00;;;7.80;90.80;;;;;;5097110;28;20118;-80
2023/03/04 09:12:39;;;;;;;12.60;1.63;;;7.80;90.80;;;;;;5096886;28;20110;-80
2023/03/04 09:15:05;;;;;;;5.97;1.20;;;7.80;90.80;;;;;;5096174;28;20023;-80
2023/03/04 09:17:31;;;;;;;7.73;2.00;;;7.80;90.80;;;;;;5114364;28;20036;-80
2023/03/04 09:19:57;;;;;;;6.67;1.20;;;7.70;90.80;;;;;;5114893;28;20030;-81
2023/03/04 09:22:23;;;;;;;5.80;1.20;;;7.80;90.80;;;;;;5108016;28;20024;-80
2023/03/04 09:24:49;;;;;;;11.33;1.63;;;7.80;90.80;;;;;;5094489;28;20055;-80
2023/03/04 09:27:14;;;;;;;10.03;1.47;;;7.80;90.70;;;;;;5076272;28;20020;-81
2023/03/04 09:29:42;;;;;;;7.40;1.20;;;7.80;90.90;;;;;;5092752;28;20027;-82
2023/03/04 09:32:07;;;;;;;5.93;1.43;;;7.80;90.90;;;;;;5076195;28;20398;-80
2023/03/04 09:34:33;;;;;;;6.97;1.00;;;7.80;91.00;;;;;;5092603;28;20035;-80
2023/03/04 09:36:59;;;;;;;8.47;0.87;;;7.80;91.20;;;;;;5075874;28;20028;-80
2023/03/04 09:39:25;;;;;;;7.07;1.60;;;7.80;91.30;;;;;;5093519;28;20047;-81
2023/03/04 09:41:56;;;;;;;2.33;0.73;;;7.90;91.60;;;;;;5075843;28;20039;-82
2023/03/04 09:44:32;;;;;;;2.63;0.70;;;7.90;91.90;;;;;;5093372;28;20050;-81
2023/03/04 09:47:01;;;;;;;5.07;0.80;;;7.80;92.30;;;;;;5092168;28;20291;-81
2023/03/04 09:49:27;;;;;;;3.60;0.90;;;7.80;92.50;;;;;;5100397;28;20471;-80
2023/03/04 09:52:11;;;;;;;4.13;1.00;;;7.80;92.80;;;;;;5113270;28;20055;-81
2023/03/04 09:55:02;;;;;;;4.28;0.90;;;7.90;93.10;;;;;;5113904;28;20475;-82
2023/03/04 09:57:44;;;;;;;6.30;1.13;;;7.90;93.20;;;;;;5113368;28;20023;-79
2023/03/04 10:00:18;;;;;;;5.50;1.63;;;8.10;93.60;;;;;;5108988;28;20024;-80
2023/03/04 10:03:05;;;;;;;6.13;1.00;;;8.20;93.70;;;;;;5109386;28;20048;-80
2023/03/04 10:05:36;;;;;;;6.27;1.10;;;8.30;93.80;;;;;;5112429;28;20039;-81
2023/03/04 10:08:37;;;;;;;4.57;1.13;;;8.50;93.90;;;;;;5112108;28;20358;-81
2023/03/04 10:11:20;;;;;;;10.27;1.07;;;8.70;94.00;;;;;;5107251;28;20024;-81
2023/03/04 10:14:11;;;;;;;4.03;1.00;;;8.90;94.10;;;;;;5113877;28;20027;-81
2023/03/04 10:16:46;;;;;;;2.47;0.70;;;9.20;93.90;;;;;;5087960;27;20368;-82
2023/03/04 10:19:36;;;;;;;7.87;0.90;;;9.40;94.00;;;;;;5113900;28;20156;-81
2023/03/04 10:22:17;;;;;;;3.57;0.50;;;9.70;93.50;;;;;;5112683;28;20027;-82
2023/03/04 10:24:45;;;;;;;4.43;0.93;;;9.80;92.90;;;;;;5114124;28;20049;-81
2023/03/04 10:27:15;;;;;;;3.60;0.70;;;9.80;92.00;;;;;;5112432;28;20031;-80
2023/03/04 10:29:41;;;;;;;3.77;0.80;;;9.80;91.50;;;;;;5112408;28;20087;-81
2023/03/04 10:32:18;;;;;;;3.97;0.87;;;9.80;91.10;;;;;;5095344;28;20461;-81
2023/03/04 10:34:44;;;;;;;2.17;0.57;;;9.70;90.80;;;;;;5113691;28;20035;-82
2023/03/04 10:37:10;;;;;;;1.83;0.40;;;9.60;90.70;;;;;;5095392;28;20035;-81
2023/03/04 10:39:44;;;;;;;2.23;0.47;;;9.50;90.80;;;;;;5113948;28;20098;-81
2023/03/04 10:42:13;;;;;;;2.28;0.50;;;9.50;90.90;;;;;;5114116;28;20027;-81
2023/03/04 10:44:42;;;;;;;2.30;0.50;;;9.60;90.80;;;;;;5111945;28;20028;-82
2023/03/04 10:47:13;;;;;;;3.47;0.40;;;9.60;90.80;;;;;;5111894;28;20030;-82
2023/03/04 10:49:56;;;;;;;4.90;0.70;;;9.60;90.70;;;;;;5112739;28;20019;-82
2023/03/04 10:52:34;;;;;;;3.55;0.68;;;9.50;90.80;;;;;;5116716;28;20028;-81
2023/03/04 10:55:05;;;;;;;5.10;0.57;;;9.50;91.00;;;;;;5117197;27;20016;-81
2023/03/04 10:57:37;;;;;;;5.07;0.50;;;9.40;91.20;;;;;;5116499;28;20032;-83
2023/03/04 11:00:34;;;;;;;2.93;0.60;;;9.70;92.20;;;;;;5116020;28;20031;-82
2023/03/04 11:03:22;;;;;;;3.10;0.50;;;10.20;92.30;;;;;;5116464;28;20070;-82
2023/03/04 11:05:48;;;;;;;4.17;0.30;;;10.50;91.70;;;;;;5120647;27;20065;-82
2023/03/04 11:08:22;;;;;;;1.42;0.40;;;10.80;91.40;;;;;;5115946;28;20039;-82
2023/03/04 11:10:50;;;;;;;1.60;0.40;;;10.90;90.60;;;;;;5099274;28;20153;-83
2023/03/04 11:13:22;;;;;;;2.08;0.60;;;11.00;90.00;;;;;;5099723;28;20024;-83
2023/03/04 11:16:01;;;;;;;2.15;0.55;;;11.00;88.90;;;;;;5116155;28;20027;-82
2023/03/04 11:18:48;;;;;;;0.93;0.40;;;11.00;87.50;;;;;;5115544;28;20035;-81
2023/03/04 11:21:27;;;;;;;2.07;0.40;;;10.90;87.10;;;;;;5116091;28;20028;-82
2023/03/04 11:23:58;;;;;;;2.17;0.50;;;10.70;86.90;;;;;;5116096;28;20106;-83
2023/03/04 11:26:55;;;;;;;5.43;0.50;;;10.50;86.80;;;;;;5117095;28;20405;-82
2023/03/04 11:29:29;;;;;;;5.47;0.87;;;10.30;87.10;;;;;;5103075;28;20490;-82
2023/03/04 11:32:13;;;;;;;2.27;0.57;;;10.10;87.30;;;;;;5115373;28;20110;-81
2023/03/04 11:34:54;;;;;;;2.55;0.50;;;9.90;88.00;;;;;;5116251;28;20567;-82
2023/03/04 11:37:39;;;;;;;1.47;0.50;;;9.80;88.70;;;;;;5115244;28;20023;-82
2023/03/04 11:40:12;;;;;;;1.00;0.40;;;9.80;90.00;;;;;;5115830;28;20024;-82
2023/03/04 11:43:11;;;;;;;2.40;0.60;;;9.70;90.20;;;;;;5115290;28;20028;-82
2023/03/04 11:45:47;;;;;;;2.63;0.50;;;9.90;90.40;;;;;;5115460;28;20127;-82
2023/03/04 11:48:24;;;;;;;2.97;0.40;;;10.20;90.60;;;;;;5116620;28;20023;-82
2023/03/04 11:50:58;;;;;;;2.33;0.40;;;10.40;90.60;;;;;;5117312;28;20023;-82
2023/03/04 11:53:41;;;;;;;2.80;0.50;;;10.50;90.30;;;;;;5116595;28;20019;-82
2023/03/04 11:56:22;;;;;;;2.77;0.50;;;10.70;90.10;;;;;;5117183;27;20031;-82
2023/03/04 11:59:05;;;;;;;2.80;0.47;;;10.70;89.50;;;;;;5117101;28;20031;-81
2023/03/04 12:02:02;;;;;;;2.37;0.50;;;10.80;89.40;;;;;;5115688;28;20031;-82
2023/03/04 12:04:39;;;;;;;2.50;0.50;;;10.80;88.90;;;;;;5114605;28;20451;-83
2023/03/04 12:07:11;;;;;;;2.83;0.40;;;10.80;88.50;;;;;;5114577;28;20527;-82
2023/03/04 12:09:58;;;;;;;2.10;0.40;;;10.80;88.10;;;;;;5114723;28;20076;-81
2023/03/04 12:13:00;;;;;;;1.87;0.50;;;10.70;87.80;;;;;;5115963;28;20417;-81
2023/03/04 12:15:42;;;;;;;2.67;0.40;;;10.60;88.30;;;;;;5114437;28;20047;-82
2023/03/04 12:18:22;;;;;;;4.60;0.50;;;10.40;88.80;;;;;;5113844;28;20046;-82
2023/03/04 12:21:03;;;;;;;3.63;0.40;;;10.30;89.10;;;;;;5114783;28;20016;-83
2023/03/04 12:23:51;;;;;;;5.07;0.47;;;10.20;88.80;;;;;;5113661;28;20032;-82
2023/03/04 12:26:16;;;;;;;1.87;0.30;;;10.20;88.80;;;;;;5114428;28;20023;-81
2023/03/04 12:29:09;;;;;;;1.80;0.40;;;10.20;89.20;;;;;;5115388;28;20499;-82
2023/03/04 12:31:41;;;;;;;1.70;0.40;;;10.60;90.00;;;;;;5115639;28;20031;-80
2023/03/04 12:34:28;;;;;;;2.15;0.30;;;11.00;89.20;;;;;;5115455;28;20023;-80
2023/03/04 12:37:12;;;;;;;2.72;0.45;;;11.40;88.30;;;;;;5113917;28;20027;-80
2023/03/04 12:40:02;;;;;;;1.45;0.40;;;11.60;87.00;;;;;;5114089;28;20040;-79
2023/03/04 12:42:46;;;;;;;1.58;0.40;;;11.60;85.80;;;;;;5114264;28;20479;-80
2023/03/04 12:45:32;;;;;;;2.58;0.30;;;11.50;84.40;;;;;;5115251;28;20028;-80
2023/03/04 12:48:16;;;;;;;3.60;0.50;;;11.30;84.60;;;;;;5114922;28;20028;-80
2023/03/04 12:50:46;;;;;;;5.47;0.65;;;11.20;83.70;;;;;;5115648;28;20497;-81
2023/03/04 12:53:28;;;;;;;4.63;0.50;;;11.00;83.20;;;;;;5114856;28;20502;-80
2023/03/04 12:55:56;;;;;;;2.00;0.40;;;10.70;82.90;;;;;;5115405;28;20542;-81
2023/03/04 12:58:28;;;;;;;9.90;1.43;;;10.50;83.20;;;;;;5115278;28;20371;-80
2023/03/04 13:01:17;;;;;;;5.67;0.50;;;10.30;83.10;;;;;;5113916;28;20035;-80
2023/03/04 13:04:01;;;;;;;7.43;0.93;;;10.10;83.90;;;;;;5119246;27;20039;-80